sensor_id;sensor_type;location;lat;lon;timestamp;pressure;altitude;pressure_sealevel;temperature;humidity
57234;BME280;43090;52.604;13.318;2023-01-25T00:02:26;103296.44;;;1.03;87.58
57234;BME280;43090;52.604;13.318;2023-01-25T00:04:53;103316.81;;;1.17;87.97
57234;BME280;43090;52.604;13.318;2023-01-25T00:07:19;103314.13;;;1.13;87.86
57234;BME280;43090;52.604;13.318;2023-01-25T00:09:46;103304.34;;;0.99;89.13
57234;BME280;43090;52.604;13.318;2023-01-25T00:12:12;103299.09;;;1.06;89.81
57234;BME280;43090;52.604;13.318;2023-01-25T00:14:39;103265.63;;;0.97;87.62
57234;BME280;43090;52.604;13.318;2023-01-25T00:17:05;103265.53;;;0.91;88.57
57234;BME280;43090;52.604;13.318;2023-01-25T00:19:32;103288.34;;;0.86;91.48
57234;BME280;43090;52.604;13.318;2023-01-25T00:21:58;103277.66;;;0.72;91.48
57234;BME280;43090;52.604;13.318;2023-01-25T00:24:25;103271.69;;;0.90;91.43
57234;BME280;43090;52.604;13.318;2023-01-25T00:26:51;103264.75;;;0.99;90.62
57234;BME280;43090;52.604;13.318;2023-01-25T00:29:18;103276.34;;;1.19;89.86
57234;BME280;43090;52.604;13.318;2023-01-25T00:39:32;103218.28;;;1.15;90.09
57234;BME280;43090;52.604;13.318;2023-01-25T00:41:58;103216.19;;;0.80;91.51
57234;BME280;43090;52.604;13.318;2023-01-25T00:44:25;103220.84;;;1.09;91.70
57234;BME280;43090;52.604;13.318;2023-01-25T00:46:51;103207.66;;;1.06;90.99
57234;BME280;43090;52.604;13.318;2023-01-25T00:49:20;103199.88;;;1.23;89.82
57234;BME280;43090;52.604;13.318;2023-01-25T00:51:48;103219.91;;;0.99;91.16
57234;BME280;43090;52.604;13.318;2023-01-25T00:54:15;103183.75;;;0.91;91.82
57234;BME280;43090;52.604;13.318;2023-01-25T00:56:42;103195.31;;;1.02;91.95
57234;BME280;43090;52.604;13.318;2023-01-25T00:59:09;103198.88;;;1.12;89.91
57234;BME280;43090;52.604;13.318;2023-01-25T01:01:35;103226.28;;;1.26;89.46
57234;BME280;43090;52.604;13.318;2023-01-25T01:04:02;103208.53;;;1.07;90.26
57234;BME280;43090;52.604;13.318;2023-01-25T01:06:34;103178.47;;;0.86;90.93
57234;BME280;43090;52.604;13.318;2023-01-25T01:09:01;103198.63;;;0.79;91.32
57234;BME280;43090;52.604;13.318;2023-01-25T01:11:28;103227.91;;;1.12;89.37
57234;BME280;43090;52.604;13.318;2023-01-25T01:13:57;103232.88;;;0.78;89.42
57234;BME280;43090;52.604;13.318;2023-01-25T01:16:24;103195.00;;;0.68;90.10
57234;BME280;43090;52.604;13.318;2023-01-25T01:18:52;103220.94;;;1.19;88.91
57234;BME280;43090;52.604;13.318;2023-01-25T01:21:19;103235.72;;;0.98;90.87
57234;BME280;43090;52.604;13.318;2023-01-25T01:23:46;103219.91;;;0.99;91.25
57234;BME280;43090;52.604;13.318;2023-01-25T01:26:14;103225.25;;;1.09;91.42
57234;BME280;43090;52.604;13.318;2023-01-25T01:28:41;103204.78;;;0.80;92.67
57234;BME280;43090;52.604;13.318;2023-01-25T01:31:12;103229.78;;;1.25;91.10
57234;BME280;43090;52.604;13.318;2023-01-25T01:33:39;103209.44;;;1.10;91.05
57234;BME280;43090;52.604;13.318;2023-01-25T01:36:09;103227.91;;;1.09;91.48
57234;BME280;43090;52.604;13.318;2023-01-25T01:38:36;103205.75;;;0.91;91.55
57234;BME280;43090;52.604;13.318;2023-01-25T01:41:03;103224.34;;;1.07;92.23
57234;BME280;43090;52.604;13.318;2023-01-25T01:43:30;103199.56;;;0.86;92.57
57234;BME280;43090;52.604;13.318;2023-01-25T01:45:59;103213.78;;;1.04;92.25
57234;BME280;43090;52.604;13.318;2023-01-25T01:48:46;103209.34;;;0.98;92.71
57234;BME280;43090;52.604;13.318;2023-01-25T01:51:23;103207.41;;;0.78;93.51
57234;BME280;43090;52.604;13.318;2023-01-25T01:53:59;103198.63;;;0.79;92.95
57234;BME280;43090;52.604;13.318;2023-01-25T01:56:38;103206.56;;;0.84;93.98
57234;BME280;43090;52.604;13.318;2023-01-25T01:59:08;103205.06;;;1.14;93.04
57234;BME280;43090;52.604;13.318;2023-01-25T02:01:37;103190.97;;;1.10;91.77
57234;BME280;43090;52.604;13.318;2023-01-25T02:04:05;103198.91;;;1.13;91.27
57234;BME280;43090;52.604;13.318;2023-01-25T02:06:41;103202.41;;;1.11;92.35
57234;BME280;43090;52.604;13.318;2023-01-25T02:09:10;103194.38;;;0.95;92.09
57234;BME280;43090;52.604;13.318;2023-01-25T02:11:38;103199.88;;;1.26;91.51
57234;BME280;43090;52.604;13.318;2023-01-25T02:14:05;103195.19;;;0.90;93.19
57234;BME280;43090;52.604;13.318;2023-01-25T02:16:32;103189.19;;;1.08;92.62
57234;BME280;43090;52.604;13.318;2023-01-25T02:18:58;103189.31;;;1.23;92.26
57234;BME280;43090;52.604;13.318;2023-01-25T02:21:34;103180.47;;;1.16;91.90
57234;BME280;43090;52.604;13.318;2023-01-25T02:24:08;103182.06;;;0.97;92.27
57234;BME280;43090;52.604;13.318;2023-01-25T02:26:36;103174.19;;;1.02;92.68
57234;BME280;43090;52.604;13.318;2023-01-25T02:29:05;103183.91;;;1.11;92.54
57234;BME280;43090;52.604;13.318;2023-01-25T02:31:33;103167.09;;;0.95;93.25
57234;BME280;43090;52.604;13.318;2023-01-25T02:34:00;103166.97;;;0.79;93.72
57234;BME280;43090;52.604;13.318;2023-01-25T02:36:28;103168.88;;;0.96;93.79
57234;BME280;43090;52.604;13.318;2023-01-25T02:41:39;103163.59;;;0.99;93.68
57234;BME280;43090;52.604;13.318;2023-01-25T02:44:10;103147.72;;;0.91;94.13
57234;BME280;43090;52.604;13.318;2023-01-25T02:46:39;103132.84;;;0.99;92.35
57234;BME280;43090;52.604;13.318;2023-01-25T02:49:07;103171.63;;;1.13;92.39
57234;BME280;43090;52.604;13.318;2023-01-25T02:51:37;103149.41;;;0.83;92.75
57234;BME280;43090;52.604;13.318;2023-01-25T02:54:06;103152.16;;;0.95;92.86
57234;BME280;43090;52.604;13.318;2023-01-25T02:56:33;103131.69;;;0.65;93.25
57234;BME280;43090;52.604;13.318;2023-01-25T02:59:00;103131.00;;;0.91;92.21
57234;BME280;43090;52.604;13.318;2023-01-25T03:01:35;103156.81;;;1.30;90.96
57234;BME280;43090;52.604;13.318;2023-01-25T03:04:02;103159.38;;;1.24;89.88
57234;BME280;43090;52.604;13.318;2023-01-25T03:06:29;103151.38;;;1.10;89.94
57234;BME280;43090;52.604;13.318;2023-01-25T03:08:55;103170.03;;;1.37;89.60
57234;BME280;43090;52.604;13.318;2023-01-25T03:11:22;103150.47;;;1.04;90.91
57234;BME280;43090;52.604;13.318;2023-01-25T03:13:48;103159.28;;;1.09;91.58
57234;BME280;43090;52.604;13.318;2023-01-25T03:16:17;103151.44;;;1.18;91.37
57234;BME280;43090;52.604;13.318;2023-01-25T03:18:45;103169.19;;;1.38;90.70
57234;BME280;43090;52.604;13.318;2023-01-25T03:21:14;103153.34;;;1.39;90.15
57234;BME280;43090;52.604;13.318;2023-01-25T03:23:42;103150.47;;;1.07;92.37
57234;BME280;43090;52.604;13.318;2023-01-25T03:26:20;103142.56;;;1.07;93.35
57234;BME280;43090;52.604;13.318;2023-01-25T03:28:47;103133.84;;;1.14;93.42
57234;BME280;43090;52.604;13.318;2023-01-25T03:31:15;103142.56;;;1.08;92.86
57234;BME280;43090;52.604;13.318;2023-01-25T03:33:42;103137.34;;;1.14;92.86
57234;BME280;43090;52.604;13.318;2023-01-25T03:36:09;103145.31;;;1.22;92.79
57234;BME280;43090;52.604;13.318;2023-01-25T03:38:35;103145.31;;;1.22;92.07
57234;BME280;43090;52.604;13.318;2023-01-25T03:41:03;103123.28;;;1.22;90.59
57234;BME280;43090;52.604;13.318;2023-01-25T03:43:29;103147.97;;;1.27;91.05
57234;BME280;43090;52.604;13.318;2023-01-25T03:45:58;103138.25;;;1.18;90.28
57234;BME280;43090;52.604;13.318;2023-01-25T03:48:26;103139.06;;;1.08;91.66
57234;BME280;43090;52.604;13.318;2023-01-25T03:50:54;103129.53;;;1.31;91.06
57234;BME280;43090;52.604;13.318;2023-01-25T03:53:23;103078.31;;;0.97;91.46
57234;BME280;43090;52.604;13.318;2023-01-25T03:56:04;103115.31;;;1.08;91.74
57234;BME280;43090;52.604;13.318;2023-01-25T03:58:35;103121.56;;;1.27;92.98
57234;BME280;43090;52.604;13.318;2023-01-25T04:01:02;103097.75;;;1.11;93.62
57234;BME280;43090;52.604;13.318;2023-01-25T04:03:32;103100.16;;;0.80;93.00
57234;BME280;43090;52.604;13.318;2023-01-25T04:05:59;103116.34;;;1.35;92.79
57234;BME280;43090;52.604;13.318;2023-01-25T04:08:26;103074.00;;;1.16;91.89
57234;BME280;43090;52.604;13.318;2023-01-25T04:10:56;103092.53;;;1.19;92.14
57234;BME280;43090;52.604;13.318;2023-01-25T04:13:25;103078.38;;;1.09;93.79
57234;BME280;43090;52.604;13.318;2023-01-25T04:15:51;103089.03;;;1.29;93.83
57234;BME280;43090;52.604;13.318;2023-01-25T04:18:19;103062.53;;;1.08;93.70
57234;BME280;43090;52.604;13.318;2023-01-25T04:20:54;103037.81;;;0.90;94.92
57234;BME280;43090;52.604;13.318;2023-01-25T04:23:21;103059.84;;;0.98;94.42
57234;BME280;43090;52.604;13.318;2023-01-25T04:25:53;103055.50;;;1.10;95.11
57234;BME280;43090;52.604;13.318;2023-01-25T04:28:20;103058.13;;;1.02;94.80
57234;BME280;43090;52.604;13.318;2023-01-25T04:30:47;103060.03;;;1.36;93.82
57234;BME280;43090;52.604;13.318;2023-01-25T04:33:13;103071.38;;;1.16;94.29
57234;BME280;43090;52.604;13.318;2023-01-25T04:35:40;103048.47;;;1.12;94.68
57234;BME280;43090;52.604;13.318;2023-01-25T04:38:08;103068.81;;;1.33;94.26
57234;BME280;43090;52.604;13.318;2023-01-25T04:40:35;103060.88;;;1.21;94.92
57234;BME280;43090;52.604;13.318;2023-01-25T04:43:02;103017.72;;;1.15;94.65
57234;BME280;43090;52.604;13.318;2023-01-25T04:45:29;103043.34;;;1.37;94.16
57234;BME280;43090;52.604;13.318;2023-01-25T04:47:56;103061.81;;;1.40;93.22
57234;BME280;43090;52.604;13.318;2023-01-25T04:50:23;103063.41;;;1.05;94.39
57234;BME280;43090;52.604;13.318;2023-01-25T04:52:49;103029.09;;;1.04;94.89
57234;BME280;43090;52.604;13.318;2023-01-25T04:55:16;103036.16;;;1.12;95.93
57234;BME280;43090;52.604;13.318;2023-01-25T04:57:42;103025.50;;;0.89;96.33
57234;BME280;43090;52.604;13.318;2023-01-25T05:00:09;103037.88;;;0.99;97.04
57234;BME280;43090;52.604;13.318;2023-01-25T05:02:36;103037.94;;;1.12;96.33
57234;BME280;43090;52.604;13.318;2023-01-25T05:05:03;103033.66;;;1.37;95.52
57234;BME280;43090;52.604;13.318;2023-01-25T05:07:30;103037.19;;;1.39;94.41
57234;BME280;43090;52.604;13.318;2023-01-25T05:09:56;103014.03;;;0.84;94.72
57234;BME280;43090;52.604;13.318;2023-01-25T05:12:23;103032.69;;;1.24;95.57
57234;BME280;43090;52.604;13.318;2023-01-25T05:14:49;103008.84;;;1.03;95.88
57234;BME280;43090;52.604;13.318;2023-01-25T05:17:16;103005.41;;;1.13;96.34
57234;BME280;43090;52.604;13.318;2023-01-25T05:19:42;103012.44;;;1.15;95.49
57234;BME280;43090;52.604;13.318;2023-01-25T05:22:16;102998.34;;;1.12;95.75
57234;BME280;43090;52.604;13.318;2023-01-25T05:24:43;103024.75;;;1.12;95.64
57234;BME280;43090;52.604;13.318;2023-01-25T05:27:12;103027.47;;;1.26;95.56
57234;BME280;43090;52.604;13.318;2023-01-25T05:29:40;103016.91;;;1.29;94.53
57234;BME280;43090;52.604;13.318;2023-01-25T05:34:35;103006.31;;;1.24;93.72
57234;BME280;43090;52.604;13.318;2023-01-25T05:37:03;103007.22;;;1.31;92.68
57234;BME280;43090;52.604;13.318;2023-01-25T05:39:30;102998.34;;;1.13;93.19
57234;BME280;43090;52.604;13.318;2023-01-25T05:41:57;103015.13;;;1.23;93.46
57234;BME280;43090;52.604;13.318;2023-01-25T05:44:24;103025.78;;;1.45;93.27
57234;BME280;43090;52.604;13.318;2023-01-25T05:46:50;103007.22;;;1.25;93.62
57234;BME280;43090;52.604;13.318;2023-01-25T05:49:17;103032.81;;;1.50;93.36
57234;BME280;43090;52.604;13.318;2023-01-25T05:51:44;103021.34;;;1.42;92.59
57234;BME280;43090;52.604;13.318;2023-01-25T05:54:13;102992.25;;;1.22;92.74
57234;BME280;43090;52.604;13.318;2023-01-25T05:56:41;102979.91;;;1.21;93.67
57234;BME280;43090;52.604;13.318;2023-01-25T05:59:10;103011.69;;;1.46;92.48
57234;BME280;43090;52.604;13.318;2023-01-25T06:01:37;103009.06;;;1.49;92.97
57234;BME280;43090;52.604;13.318;2023-01-25T06:04:03;102982.59;;;1.29;92.98
57234;BME280;43090;52.604;13.318;2023-01-25T06:06:30;103001.06;;;1.27;93.35
57234;BME280;43090;52.604;13.318;2023-01-25T06:09:06;102994.03;;;1.25;94.48
57234;BME280;43090;52.604;13.318;2023-01-25T06:11:32;102974.63;;;1.18;93.38
57234;BME280;43090;52.604;13.318;2023-01-25T06:14:10;102978.09;;;1.05;95.13
57234;BME280;43090;52.604;13.318;2023-01-25T06:16:36;102997.53;;;1.19;96.09
57234;BME280;43090;52.604;13.318;2023-01-25T06:19:04;102970.13;;;0.94;96.96
57234;BME280;43090;52.604;13.318;2023-01-25T06:21:33;102953.41;;;0.89;96.78
57234;BME280;43090;52.604;13.318;2023-01-25T06:24:03;102985.25;;;1.27;96.03
57234;BME280;43090;52.604;13.318;2023-01-25T06:26:30;102999.38;;;1.46;95.32
57234;BME280;43090;52.604;13.318;2023-01-25T06:28:57;102998.50;;;1.47;94.50
57234;BME280;43090;52.604;13.318;2023-01-25T06:31:26;103005.47;;;1.33;95.49
57234;BME280;43090;52.604;13.318;2023-01-25T06:33:53;102985.19;;;1.24;95.85
57234;BME280;43090;52.604;13.318;2023-01-25T06:36:20;103002.88;;;1.41;95.67
57234;BME280;43090;52.604;13.318;2023-01-25T06:38:51;102994.97;;;1.39;95.39
57234;BME280;43090;52.604;13.318;2023-01-25T06:41:19;102995.72;;;1.12;96.34
57234;BME280;43090;52.604;13.318;2023-01-25T06:43:46;102963.25;;;1.33;95.79
57234;BME280;43090;52.604;13.318;2023-01-25T06:46:13;102986.13;;;1.34;95.42
57234;BME280;43090;52.604;13.318;2023-01-25T06:48:42;102971.13;;;1.21;95.46
57234;BME280;43090;52.604;13.318;2023-01-25T06:51:09;102976.50;;;1.53;94.87
57234;BME280;43090;52.604;13.318;2023-01-25T06:53:38;102976.47;;;1.39;95.78
57234;BME280;43090;52.604;13.318;2023-01-25T06:56:17;102951.84;;;1.45;95.17
57234;BME280;43090;52.604;13.318;2023-01-25T06:58:44;102966.75;;;1.26;95.47
57234;BME280;43090;52.604;13.318;2023-01-25T07:01:22;102957.94;;;1.25;95.64
57234;BME280;43090;52.604;13.318;2023-01-25T07:03:57;102953.47;;;1.06;97.66
57234;BME280;43090;52.604;13.318;2023-01-25T07:06:25;102967.63;;;1.29;97.55
57234;BME280;43090;52.604;13.318;2023-01-25T07:09:01;102949.94;;;1.04;96.08
57234;BME280;43090;52.604;13.318;2023-01-25T07:11:27;102947.28;;;0.94;97.20
57234;BME280;43090;52.604;13.318;2023-01-25T07:13:54;102933.22;;;1.02;97.32
57234;BME280;43090;52.604;13.318;2023-01-25T07:16:20;102921.88;;;1.21;95.59
57234;BME280;43090;52.604;13.318;2023-01-25T07:18:47;102938.53;;;1.09;96.08
57234;BME280;43090;52.604;13.318;2023-01-25T07:21:20;102952.59;;;1.08;97.94
57234;BME280;43090;52.604;13.318;2023-01-25T07:23:49;102919.13;;;0.96;96.90
57234;BME280;43090;52.604;13.318;2023-01-25T07:26:24;102943.91;;;1.39;96.12
57234;BME280;43090;52.604;13.318;2023-01-25T07:28:52;102935.13;;;1.50;95.18
57234;BME280;43090;52.604;13.318;2023-01-25T07:31:19;102916.63;;;1.30;94.98
57234;BME280;43090;52.604;13.318;2023-01-25T07:33:48;102929.84;;;1.46;95.02
57234;BME280;43090;52.604;13.318;2023-01-25T07:36:15;102911.31;;;1.18;95.00
57234;BME280;43090;52.604;13.318;2023-01-25T07:38:42;102927.22;;;1.49;94.25
57234;BME280;43090;52.604;13.318;2023-01-25T07:41:09;102948.38;;;1.67;94.58
57234;BME280;43090;52.604;13.318;2023-01-25T07:43:36;102927.16;;;1.33;95.15
57234;BME280;43090;52.604;13.318;2023-01-25T07:46:03;102941.28;;;1.49;94.77
57234;BME280;43090;52.604;13.318;2023-01-25T07:48:30;102932.44;;;1.30;95.12
57234;BME280;43090;52.604;13.318;2023-01-25T07:51:02;102933.34;;;1.40;95.99
57234;BME280;43090;52.604;13.318;2023-01-25T07:53:42;102934.22;;;1.31;95.55
57234;BME280;43090;52.604;13.318;2023-01-25T07:56:10;102924.56;;;1.43;95.51
57234;BME280;43090;52.604;13.318;2023-01-25T07:58:37;102909.59;;;1.45;95.00
57234;BME280;43090;52.604;13.318;2023-01-25T08:01:07;102902.56;;;1.45;94.32
57234;BME280;43090;52.604;13.318;2023-01-25T08:03:34;102872.47;;;0.77;96.54
57234;BME280;43090;52.604;13.318;2023-01-25T08:06:01;102921.94;;;1.58;95.84
57234;BME280;43090;52.604;13.318;2023-01-25T08:08:32;102917.50;;;1.32;95.92
57234;BME280;43090;52.604;13.318;2023-01-25T08:11:12;102916.66;;;1.61;96.13
57234;BME280;43090;52.604;13.318;2023-01-25T08:13:40;102877.91;;;1.36;94.50
57234;BME280;43090;52.604;13.318;2023-01-25T08:16:16;102854.13;;;1.20;95.26
57234;BME280;43090;52.604;13.318;2023-01-25T08:18:52;102909.66;;;1.60;95.80
57234;BME280;43090;52.604;13.318;2023-01-25T08:21:19;102862.03;;;1.08;95.73
57234;BME280;43090;52.604;13.318;2023-01-25T08:23:46;102884.91;;;1.20;95.89
57234;BME280;43090;52.604;13.318;2023-01-25T08:26:13;102911.38;;;1.46;96.28
57234;BME280;43090;52.604;13.318;2023-01-25T08:28:40;102891.09;;;1.31;95.61
57234;BME280;43090;52.604;13.318;2023-01-25T08:31:13;102858.50;;;1.13;96.70
57234;BME280;43090;52.604;13.318;2023-01-25T08:33:41;102879.69;;;1.40;96.23
57234;BME280;43090;52.604;13.318;2023-01-25T08:36:09;102872.63;;;1.23;97.01
57234;BME280;43090;52.604;13.318;2023-01-25T08:38:37;102847.97;;;1.09;97.26
57234;BME280;43090;52.604;13.318;2023-01-25T08:41:17;102865.44;;;0.82;98.14
57234;BME280;43090;52.604;13.318;2023-01-25T08:43:45;102857.63;;;1.10;98.36
57234;BME280;43090;52.604;13.318;2023-01-25T08:46:29;102867.34;;;1.29;98.67
57234;BME280;43090;52.604;13.318;2023-01-25T08:49:00;102874.38;;;1.32;98.21
57234;BME280;43090;52.604;13.318;2023-01-25T08:51:30;102882.25;;;1.09;98.36
57234;BME280;43090;52.604;13.318;2023-01-25T08:54:04;102885.78;;;1.06;99.68
57234;BME280;43090;52.604;13.318;2023-01-25T08:56:31;102889.34;;;1.28;99.47
57234;BME280;43090;52.604;13.318;2023-01-25T08:58:58;102888.47;;;1.48;98.24
57234;BME280;43090;52.604;13.318;2023-01-25T09:01:25;102888.47;;;1.46;98.53
57234;BME280;43090;52.604;13.318;2023-01-25T09:03:52;102865.56;;;1.13;99.35
57234;BME280;43090;52.604;13.318;2023-01-25T09:06:19;102847.00;;;0.87;98.66
57234;BME280;43090;52.604;13.318;2023-01-25T09:08:46;102891.09;;;1.37;99.65
57234;BME280;43090;52.604;13.318;2023-01-25T09:11:15;102862.84;;;0.83;99.94
57234;BME280;43090;52.604;13.318;2023-01-25T09:13:42;102859.44;;;1.23;99.14
57234;BME280;43090;52.604;13.318;2023-01-25T09:16:14;102868.22;;;1.30;98.10
57234;BME280;43090;52.604;13.318;2023-01-25T09:18:43;102877.91;;;1.23;98.38
57234;BME280;43090;52.604;13.318;2023-01-25T09:21:15;102859.41;;;1.14;98.79
57234;BME280;43090;52.604;13.318;2023-01-25T09:23:43;102857.59;;;0.97;100.00
57234;BME280;43090;52.604;13.318;2023-01-25T09:26:30;102887.47;;;0.96;100.00
57234;BME280;43090;52.604;13.318;2023-01-25T09:28:57;102876.88;;;0.82;100.00
57234;BME280;43090;52.604;13.318;2023-01-25T09:31:23;102883.13;;;1.11;100.00
57234;BME280;43090;52.604;13.318;2023-01-25T09:33:52;102845.34;;;1.24;99.56
57234;BME280;43090;52.604;13.318;2023-01-25T09:36:18;102877.03;;;1.29;99.51
57234;BME280;43090;52.604;13.318;2023-01-25T09:38:46;102877.03;;;1.26;100.00
57234;BME280;43090;52.604;13.318;2023-01-25T09:41:33;102875.19;;;1.02;100.00
57234;BME280;43090;52.604;13.318;2023-01-25T09:46:59;102850.59;;;1.10;100.00
57234;BME280;43090;52.604;13.318;2023-01-25T09:55:01;102847.03;;;0.99;100.00
57234;BME280;43090;52.604;13.318;2023-01-25T09:57:35;102847.09;;;1.22;100.00
57234;BME280;43090;52.604;13.318;2023-01-25T10:00:13;102845.28;;;0.90;100.00
57234;BME280;43090;52.604;13.318;2023-01-25T10:03:02;102840.09;;;1.50;100.00
57234;BME280;43090;52.604;13.318;2023-01-25T10:05:36;102832.09;;;1.06;100.00
57234;BME280;43090;52.604;13.318;2023-01-25T10:08:22;102829.47;;;0.98;100.00
57234;BME280;43090;52.604;13.318;2023-01-25T10:13:42;102835.66;;;1.29;100.00
57234;BME280;43090;52.604;13.318;2023-01-25T10:16:18;102825.13;;;1.26;100.00
57234;BME280;43090;52.604;13.318;2023-01-25T10:19:11;102830.38;;;1.05;100.00
57234;BME280;43090;52.604;13.318;2023-01-25T10:24:40;102833.91;;;1.19;100.00
57234;BME280;43090;52.604;13.318;2023-01-25T10:27:32;102819.81;;;1.05;100.00
57234;BME280;43090;52.604;13.318;2023-01-25T10:30:12;102780.19;;;0.89;100.00
57234;BME280;43090;52.604;13.318;2023-01-25T10:32:42;102777.63;;;1.14;100.00
57234;BME280;43090;52.604;13.318;2023-01-25T10:35:23;102771.41;;;0.92;100.00
57234;BME280;43090;52.604;13.318;2023-01-25T10:38:10;102789.91;;;1.32;100.00
57234;BME280;43090;52.604;13.318;2023-01-25T10:40:46;102767.03;;;1.20;100.00
57234;BME280;43090;52.604;13.318;2023-01-25T10:43:22;102773.22;;;1.21;100.00
57234;BME280;43090;52.604;13.318;2023-01-25T10:45:49;102789.88;;;0.96;100.00
57234;BME280;43090;52.604;13.318;2023-01-25T10:48:19;102793.38;;;0.92;100.00
57234;BME280;43090;52.604;13.318;2023-01-25T10:50:48;102781.06;;;0.76;100.00
57234;BME280;43090;52.604;13.318;2023-01-25T10:53:24;102781.97;;;0.92;100.00
57234;BME280;43090;52.604;13.318;2023-01-25T10:56:01;102787.22;;;0.84;100.00
57234;BME280;43090;52.604;13.318;2023-01-25T10:58:36;102738.91;;;0.94;100.00
57234;BME280;43090;52.604;13.318;2023-01-25T11:01:05;102760.88;;;0.92;100.00
57234;BME280;43090;52.604;13.318;2023-01-25T11:03:45;102774.06;;;1.13;100.00
57234;BME280;43090;52.604;13.318;2023-01-25T11:11:59;102700.19;;;0.79;100.00
57234;BME280;43090;52.604;13.318;2023-01-25T11:14:31;102741.47;;;0.66;100.00
57234;BME280;43090;52.604;13.318;2023-01-25T11:17:04;102703.66;;;0.66;100.00
57234;BME280;43090;52.604;13.318;2023-01-25T11:19:46;102729.25;;;1.16;100.00
57234;BME280;43090;52.604;13.318;2023-01-25T11:22:25;102739.78;;;1.03;100.00
57234;BME280;43090;52.604;13.318;2023-01-25T11:24:55;102693.16;;;0.85;100.00
57234;BME280;43090;52.604;13.318;2023-01-25T11:27:28;102706.38;;;1.15;100.00
57234;BME280;43090;52.604;13.318;2023-01-25T11:30:11;102694.91;;;0.96;100.00
57234;BME280;43090;52.604;13.318;2023-01-25T11:32:43;102709.88;;;1.33;100.00
57234;BME280;43090;52.604;13.318;2023-01-25T11:35:26;102697.56;;;0.89;100.00
57234;BME280;43090;52.604;13.318;2023-01-25T11:38:04;102705.47;;;0.81;100.00
57234;BME280;43090;52.604;13.318;2023-01-25T11:44:18;102690.50;;;1.22;100.00
57234;BME280;43090;52.604;13.318;2023-01-25T11:47:07;102686.13;;;0.94;100.00
57234;BME280;43090;52.604;13.318;2023-01-25T11:55:27;102666.81;;;0.95;100.00
57234;BME280;43090;52.604;13.318;2023-01-25T12:00:53;102656.25;;;0.80;100.00
57234;BME280;43090;52.604;13.318;2023-01-25T12:03:49;102653.56;;;1.22;100.00
57234;BME280;43090;52.604;13.318;2023-01-25T12:09:09;102626.31;;;1.15;100.00
57234;BME280;43090;52.604;13.318;2023-01-25T12:11:51;102627.16;;;1.29;100.00
57234;BME280;43090;52.604;13.318;2023-01-25T12:14:34;102621.94;;;1.15;100.00
57234;BME280;43090;52.604;13.318;2023-01-25T12:20:12;102566.59;;;0.51;100.00
57234;BME280;43090;52.604;13.318;2023-01-25T12:31:01;102592.09;;;0.79;100.00
57234;BME280;43090;52.604;13.318;2023-01-25T12:33:33;102581.47;;;1.16;100.00
57234;BME280;43090;52.604;13.318;2023-01-25T12:36:27;102585.06;;;0.77;100.00
57234;BME280;43090;52.604;13.318;2023-01-25T12:39:09;102549.88;;;0.67;100.00
57234;BME280;43090;52.604;13.318;2023-01-25T12:41:47;102575.31;;;1.22;100.00
57234;BME280;43090;52.604;13.318;2023-01-25T12:44:59;102514.72;;;0.73;100.00
57234;BME280;43090;52.604;13.318;2023-01-25T12:47:33;102563.06;;;0.76;100.00
57234;BME280;43090;52.604;13.318;2023-01-25T12:50:20;102536.72;;;0.72;100.00
57234;BME280;43090;52.604;13.318;2023-01-25T12:52:52;102556.00;;;0.98;100.00
57234;BME280;43090;52.604;13.318;2023-01-25T12:55:20;102543.75;;;0.48;100.00
57234;BME280;43090;52.604;13.318;2023-01-25T12:57:54;102555.16;;;0.65;100.00
57234;BME280;43090;52.604;13.318;2023-01-25T13:03:33;102546.38;;;0.85;100.00
57234;BME280;43090;52.604;13.318;2023-01-25T13:09:22;102541.09;;;0.73;100.00
57234;BME280;43090;52.604;13.318;2023-01-25T13:11:53;102527.94;;;0.60;100.00
57234;BME280;43090;52.604;13.318;2023-01-25T13:14:37;102527.91;;;0.76;100.00
57234;BME280;43090;52.604;13.318;2023-01-25T13:17:22;102534.91;;;0.98;100.00
57234;BME280;43090;52.604;13.318;2023-01-25T13:19:51;102530.47;;;1.08;100.00
57234;BME280;43090;52.604;13.318;2023-01-25T13:27:42;102485.78;;;0.42;100.00
57234;BME280;43090;52.604;13.318;2023-01-25T13:33:02;102509.38;;;1.05;100.00
57234;BME280;43090;52.604;13.318;2023-01-25T13:35:40;102512.03;;;0.97;100.00
57234;BME280;43090;52.604;13.318;2023-01-25T13:40:35;102495.44;;;0.41;100.00
57234;BME280;43090;52.604;13.318;2023-01-25T13:43:05;102468.19;;;0.48;100.00
57234;BME280;43090;52.604;13.318;2023-01-25T13:45:41;102482.16;;;0.97;100.00
57234;BME280;43090;52.604;13.318;2023-01-25T13:48:17;102478.69;;;0.79;100.00
57234;BME280;43090;52.604;13.318;2023-01-25T13:50:54;102450.59;;;0.55;100.00
57234;BME280;43090;52.604;13.318;2023-01-25T13:53:24;102476.91;;;0.83;100.00
57234;BME280;43090;52.604;13.318;2023-01-25T13:56:01;102464.66;;;0.74;100.00
57234;BME280;43090;52.604;13.318;2023-01-25T13:58:33;102408.44;;;0.55;100.00
57234;BME280;43090;52.604;13.318;2023-01-25T14:01:16;102474.22;;;0.94;100.00
57234;BME280;43090;52.604;13.318;2023-01-25T14:03:44;102456.72;;;0.71;100.00
57234;BME280;43090;52.604;13.318;2023-01-25T14:08:47;102473.41;;;0.82;100.00
57234;BME280;43090;52.604;13.318;2023-01-25T14:11:19;102474.22;;;0.94;100.00
57234;BME280;43090;52.604;13.318;2023-01-25T14:14:16;102468.16;;;0.65;100.00
57234;BME280;43090;52.604;13.318;2023-01-25T14:16:43;102473.31;;;1.06;100.00
57234;BME280;43090;52.604;13.318;2023-01-25T14:21:47;102453.16;;;0.91;100.00
57234;BME280;43090;52.604;13.318;2023-01-25T14:24:16;102436.50;;;0.76;100.00
57234;BME280;43090;52.604;13.318;2023-01-25T14:26:44;102452.31;;;0.84;100.00
57234;BME280;43090;52.604;13.318;2023-01-25T14:29:18;102456.69;;;0.85;100.00